createdAt,value
2023-05-08T00:01:11.515Z,11.17
2023-05-08T00:03:39.446Z,10.89
2023-05-08T00:06:06.997Z,10.74
2023-05-08T00:08:34.108Z,10.68
2023-05-08T00:11:01.575Z,10.69
2023-05-08T00:13:28.750Z,10.82
2023-05-08T00:15:55.909Z,10.84
2023-05-08T00:18:23.370Z,10.87
2023-05-08T00:20:50.508Z,10.85
2023-05-08T00:23:17.675Z,10.80
2023-05-08T00:25:45.065Z,10.72
2023-05-08T00:28:12.239Z,10.66
2023-05-08T00:30:39.917Z,10.45
2023-05-08T00:33:07.765Z,10.39
2023-05-08T00:35:34.922Z,10.20
2023-05-08T00:38:02.201Z,10.03
2023-05-08T00:40:29.761Z,9.93
2023-05-08T00:42:56.871Z,9.88
2023-05-08T00:45:24.123Z,9.76
2023-05-08T00:47:51.687Z,9.66
2023-05-08T00:50:18.949Z,9.59
2023-05-08T00:52:46.390Z,9.51
2023-05-08T00:55:13.757Z,9.43
2023-05-08T00:57:40.884Z,9.41
2023-05-08T01:00:08.666Z,9.34
2023-05-08T01:02:36.648Z,9.25
2023-05-08T01:05:04.153Z,9.32
2023-05-08T01:07:31.511Z,9.25
2023-05-08T01:09:58.932Z,9.27
2023-05-08T01:12:45.239Z,9.20
2023-05-08T01:15:17.507Z,9.27
2023-05-08T01:18:18.994Z,9.23
2023-05-08T01:20:59.556Z,9.17
2023-05-08T01:23:48.238Z,9.12
2023-05-08T01:26:51.705Z,9.00
2023-05-08T01:29:39.013Z,8.99
2023-05-08T01:32:22.764Z,8.97
2023-05-08T01:35:43.910Z,9.03
2023-05-08T01:38:27.984Z,8.92
2023-05-08T01:41:28.435Z,8.91
2023-05-08T01:44:10.578Z,8.88
2023-05-08T01:46:37.850Z,8.85
2023-05-08T01:49:09.448Z,8.74
2023-05-08T01:51:41.175Z,8.81
2023-05-08T01:54:12.620Z,8.72
2023-05-08T01:56:42.998Z,8.78
2023-05-08T01:59:14.136Z,8.76
2023-05-08T02:01:44.927Z,8.70
2023-05-08T02:04:12.765Z,8.67
2023-05-08T02:06:40.551Z,8.72
2023-05-08T02:09:08.707Z,8.74
2023-05-08T02:11:38.150Z,8.68
2023-05-08T02:14:06.832Z,8.60
2023-05-08T02:16:36.183Z,8.59
2023-05-08T02:19:04.701Z,8.62
2023-05-08T02:21:32.264Z,8.66
2023-05-08T02:24:00.799Z,8.79
2023-05-08T02:26:28.738Z,8.83
2023-05-08T02:28:56.264Z,8.90
2023-05-08T02:31:24.652Z,8.80
2023-05-08T02:33:52.759Z,8.79
2023-05-08T02:36:20.572Z,8.76
2023-05-08T02:38:51.847Z,8.87
2023-05-08T02:41:22.232Z,8.86
2023-05-08T02:43:51.875Z,8.89
2023-05-08T02:46:22.956Z,8.97
2023-05-08T02:49:00.756Z,9.05
2023-05-08T02:51:39.815Z,8.80
2023-05-08T02:54:16.204Z,8.62
2023-05-08T02:57:21.795Z,8.55
2023-05-08T03:00:06.283Z,8.48
2023-05-08T03:02:42.242Z,8.47
2023-05-08T03:05:30.694Z,8.34
2023-05-08T03:08:00.965Z,8.32
2023-05-08T03:10:35.590Z,8.30
2023-05-08T03:13:06.314Z,8.22
2023-05-08T03:15:42.524Z,8.18
2023-05-08T03:18:12.053Z,8.21
2023-05-08T03:20:43.541Z,8.21
2023-05-08T03:23:13.063Z,8.44
2023-05-08T03:25:42.292Z,8.60
2023-05-08T03:28:10.684Z,8.71
2023-05-08T03:30:40.768Z,8.93
2023-05-08T03:33:09.013Z,9.05
2023-05-08T03:35:39.627Z,9.01
2023-05-08T03:38:08.130Z,8.88
2023-05-08T03:40:36.907Z,8.74
2023-05-08T03:43:08.055Z,8.64
2023-05-08T03:45:40.269Z,8.79
2023-05-08T03:48:08.922Z,8.80
2023-05-08T03:50:37.982Z,8.83
2023-05-08T03:53:05.627Z,8.93
2023-05-08T03:55:33.184Z,8.81
2023-05-08T03:58:14.102Z,8.88
2023-05-08T04:00:56.940Z,8.85
2023-05-08T04:03:37.370Z,8.88
2023-05-08T04:06:14.348Z,8.94
2023-05-08T04:08:47.313Z,9.05
2023-05-08T04:11:30.471Z,9.20
2023-05-08T04:14:03.589Z,9.26
2023-05-08T04:16:39.617Z,9.37
2023-05-08T04:19:11.021Z,9.37
2023-05-08T04:21:42.554Z,9.48
2023-05-08T04:24:13.033Z,9.61
2023-05-08T04:26:40.774Z,9.68
2023-05-08T04:29:08.339Z,9.73
2023-05-08T04:31:36.960Z,9.84
2023-05-08T04:34:04.633Z,9.96
2023-05-08T04:36:33.911Z,10.08
2023-05-08T04:39:02.152Z,10.13
2023-05-08T04:41:30.374Z,10.31
2023-05-08T04:43:57.735Z,10.58
2023-05-08T04:46:25.706Z,10.79
2023-05-08T04:48:52.993Z,11.05
2023-05-08T04:51:20.287Z,11.24
2023-05-08T04:53:49.138Z,11.43
2023-05-08T04:56:16.350Z,11.30
2023-05-08T04:58:43.581Z,11.26
2023-05-08T05:01:11.381Z,11.24
2023-05-08T05:03:38.797Z,11.60
2023-05-08T05:06:06.105Z,11.77
2023-05-08T05:08:33.578Z,11.77
2023-05-08T05:11:01.528Z,11.68
2023-05-08T05:13:29.002Z,11.79
2023-05-08T05:15:59.471Z,11.77
2023-05-08T05:18:26.693Z,11.84
2023-05-08T05:20:54.003Z,11.87
2023-05-08T05:23:21.894Z,11.78
2023-05-08T05:25:49.129Z,11.85
2023-05-08T05:28:16.679Z,12.07
2023-05-08T05:30:47.249Z,12.10
2023-05-08T05:33:14.576Z,12.17
2023-05-08T05:35:41.909Z,12.02
2023-05-08T05:38:09.472Z,12.04
2023-05-08T05:40:36.808Z,12.11
2023-05-08T05:43:04.205Z,12.09
2023-05-08T05:45:33.536Z,12.03
2023-05-08T05:48:01.140Z,12.10
2023-05-08T05:50:29.861Z,12.06
2023-05-08T05:52:57.588Z,12.15
2023-05-08T05:55:25.776Z,12.33
2023-05-08T05:57:53.151Z,12.39
2023-05-08T06:00:21.497Z,12.67
2023-05-08T06:02:49.642Z,13.04
2023-05-08T06:05:19.129Z,13.05
2023-05-08T06:07:46.466Z,12.93
2023-05-08T06:10:13.926Z,12.77
2023-05-08T06:12:41.901Z,13.07
2023-05-08T06:15:09.983Z,12.85
2023-05-08T06:17:37.524Z,13.19
2023-05-08T06:20:05.501Z,13.51
2023-05-08T06:22:32.626Z,13.71
2023-05-08T06:25:00.139Z,13.69
2023-05-08T06:27:27.302Z,13.41
2023-05-08T06:29:54.406Z,13.47
2023-05-08T06:32:22.405Z,13.37
2023-05-08T06:34:49.734Z,13.16
2023-05-08T06:37:16.909Z,12.81
2023-05-08T06:39:44.409Z,12.60
2023-05-08T06:42:12.073Z,12.60
2023-05-08T06:44:40.744Z,12.44
2023-05-08T06:47:08.512Z,12.30
2023-05-08T06:49:36.449Z,11.97
2023-05-08T06:52:03.683Z,11.79
2023-05-08T06:54:31.121Z,11.89
2023-05-08T06:56:58.182Z,11.94
2023-05-08T06:59:25.383Z,11.82
2023-05-08T07:01:52.815Z,11.79
2023-05-08T07:04:20.286Z,11.88
2023-05-08T07:06:47.424Z,11.85
2023-05-08T07:09:16.204Z,11.95
2023-05-08T07:11:43.690Z,11.90
2023-05-08T07:14:10.778Z,11.99
2023-05-08T07:16:38.282Z,12.05
2023-05-08T07:19:05.630Z,12.22
2023-05-08T07:21:32.714Z,12.23
2023-05-08T07:24:00.141Z,12.20
2023-05-08T07:26:27.408Z,12.15
2023-05-08T07:28:54.612Z,12.35
2023-05-08T07:31:22.319Z,12.53
2023-05-08T07:33:49.561Z,12.49
2023-05-08T07:36:16.797Z,12.56
2023-05-08T07:38:44.265Z,12.73
2023-05-08T07:41:11.582Z,12.85
2023-05-08T07:43:39.216Z,12.89
2023-05-08T07:46:06.843Z,13.41
2023-05-08T07:48:34.478Z,13.33
2023-05-08T07:51:01.633Z,13.15
2023-05-08T07:53:29.259Z,13.15
2023-05-08T07:55:56.348Z,13.09
2023-05-08T07:58:23.982Z,13.03
2023-05-08T08:00:51.504Z,13.05
2023-05-08T08:03:19.014Z,13.24
2023-05-08T08:05:46.450Z,13.36
2023-05-08T08:08:13.635Z,13.71
2023-05-08T08:10:41.703Z,13.98
2023-05-08T08:13:08.810Z,14.27
2023-05-08T08:15:36.183Z,14.20
2023-05-08T08:18:03.836Z,13.88
2023-05-08T08:20:30.969Z,14.37
2023-05-08T08:22:58.595Z,14.77
2023-05-08T08:25:27.778Z,14.95
2023-05-08T08:27:55.153Z,14.89
2023-05-08T08:30:22.359Z,14.51
2023-05-08T08:32:49.838Z,14.30
2023-05-08T08:35:17.326Z,14.32
2023-05-08T08:37:44.655Z,14.21
2023-05-08T08:40:12.344Z,14.35
2023-05-08T08:42:39.461Z,14.15
2023-05-08T08:45:07.170Z,14.53
2023-05-08T08:47:37.897Z,14.78
2023-05-08T08:50:05.650Z,15.06
2023-05-08T08:52:44.919Z,15.37
2023-05-08T08:55:15.863Z,15.45
2023-05-08T08:57:55.300Z,15.14
2023-05-08T09:00:23.847Z,14.88
2023-05-08T09:02:51.542Z,14.80
2023-05-08T09:05:19.063Z,14.90
2023-05-08T09:07:46.611Z,15.21
2023-05-08T09:10:15.763Z,15.21
2023-05-08T09:12:45.037Z,15.22
2023-05-08T09:15:12.779Z,15.34
2023-05-08T09:17:40.442Z,15.19
2023-05-08T09:20:08.343Z,15.24
2023-05-08T09:22:37.089Z,15.27
2023-05-08T09:25:04.583Z,15.28
2023-05-08T09:27:32.444Z,15.64
2023-05-08T09:30:00.699Z,15.74
2023-05-08T09:32:29.421Z,16.11
2023-05-08T09:34:57.049Z,16.36
2023-05-08T09:37:25.255Z,16.36
2023-05-08T09:39:52.913Z,16.41
2023-05-08T09:42:20.300Z,16.49
2023-05-08T09:44:52.885Z,16.34
2023-05-08T09:47:22.875Z,16.27
2023-05-08T09:50:09.414Z,16.18
2023-05-08T09:52:38.097Z,16.17
2023-05-08T09:55:10.166Z,16.30
2023-05-08T09:57:39.412Z,16.50
2023-05-08T10:00:11.709Z,16.65
2023-05-08T10:02:53.703Z,16.55
2023-05-08T10:05:25.659Z,16.67
2023-05-08T10:07:53.427Z,16.98
2023-05-08T10:10:27.830Z,17.43
2023-05-08T10:12:57.313Z,17.52
2023-05-08T10:15:29.260Z,17.60
2023-05-08T10:18:06.538Z,17.51
2023-05-08T10:20:36.030Z,17.21
2023-05-08T10:23:06.476Z,17.04
2023-05-08T10:25:35.635Z,16.84
2023-05-08T10:28:23.093Z,16.92
2023-05-08T10:30:51.065Z,16.96
2023-05-08T10:33:20.916Z,17.24
2023-05-08T10:35:48.229Z,17.27
2023-05-08T10:38:16.884Z,17.25
2023-05-08T10:40:44.245Z,17.23
2023-05-08T10:43:11.554Z,17.25
2023-05-08T10:45:39.312Z,17.33
2023-05-08T10:48:31.034Z,17.45
2023-05-08T10:51:17.890Z,17.68
2023-05-08T10:53:54.295Z,17.66
2023-05-08T10:56:28.627Z,17.66
2023-05-08T10:58:56.746Z,17.52
2023-05-08T11:01:25.694Z,17.54
2023-05-08T11:03:55.187Z,17.37
2023-05-08T11:06:45.659Z,17.50
2023-05-08T11:09:21.565Z,17.32
2023-05-08T11:12:00.389Z,17.34
2023-05-08T11:14:28.100Z,17.36
2023-05-08T11:16:55.230Z,17.43
2023-05-08T11:19:23.972Z,17.71
2023-05-08T11:22:24.891Z,18.03
2023-05-08T11:25:00.262Z,18.31
2023-05-08T11:27:48.944Z,18.19
2023-05-08T11:30:32.280Z,17.99
2023-05-08T11:33:06.096Z,17.90
2023-05-08T11:35:56.141Z,17.94
2023-05-08T11:38:31.688Z,18.02
2023-05-08T11:41:06.623Z,18.33
2023-05-08T11:43:34.078Z,18.13
2023-05-08T11:46:13.742Z,18.20
2023-05-08T11:48:41.251Z,18.21
2023-05-08T11:51:08.436Z,18.24
2023-05-08T11:53:36.984Z,18.53
2023-05-08T11:56:04.794Z,18.28
2023-05-08T11:58:32.033Z,18.28
2023-05-08T12:00:59.243Z,18.21
2023-05-08T12:03:26.816Z,18.16
2023-05-08T12:05:58.033Z,18.28
2023-05-08T12:08:25.483Z,18.25
2023-05-08T12:10:54.838Z,18.41
2023-05-08T12:13:26.728Z,18.53
2023-05-08T12:15:58.996Z,18.59
2023-05-08T12:18:27.666Z,18.27
2023-05-08T12:21:00.306Z,18.28
2023-05-08T12:23:30.946Z,18.63
2023-05-08T12:26:00.073Z,18.62
2023-05-08T12:28:27.599Z,18.59
2023-05-08T12:30:55.034Z,18.50
2023-05-08T12:33:22.525Z,18.49
2023-05-08T12:35:49.744Z,18.69
2023-05-08T12:38:16.917Z,18.90
2023-05-08T12:40:46.424Z,19.22
2023-05-08T12:43:13.559Z,19.52
2023-05-08T12:45:42.451Z,19.76
2023-05-08T12:48:12.526Z,19.75
2023-05-08T12:50:44.026Z,19.94
2023-05-08T12:53:19.412Z,19.82
2023-05-08T12:56:10.769Z,19.85
2023-05-08T12:58:38.224Z,19.87
2023-05-08T13:01:13.374Z,19.92
2023-05-08T13:03:41.535Z,20.01
2023-05-08T13:06:20.701Z,20.12
2023-05-08T13:08:53.312Z,20.19
2023-05-08T13:11:30.520Z,20.25
2023-05-08T13:13:58.058Z,19.94
2023-05-08T13:16:25.305Z,20.03
2023-05-08T13:18:52.431Z,20.11
2023-05-08T13:21:19.840Z,20.16
2023-05-08T13:23:46.982Z,20.24
2023-05-08T13:26:14.095Z,20.36
2023-05-08T13:28:41.527Z,20.10
2023-05-08T13:31:08.625Z,20.22
2023-05-08T13:33:35.756Z,20.34
2023-05-08T13:36:03.249Z,20.44
2023-05-08T13:38:30.334Z,20.52
2023-05-08T13:40:57.482Z,20.60
2023-05-08T13:43:24.905Z,20.64
2023-05-08T13:45:52.190Z,20.57
2023-05-08T13:48:19.643Z,20.57
2023-05-08T13:50:47.050Z,20.68
2023-05-08T13:53:14.199Z,20.75
2023-05-08T13:55:42.276Z,20.25
2023-05-08T13:58:09.724Z,20.28
2023-05-08T14:00:36.886Z,20.42
2023-05-08T14:03:04.500Z,20.15
2023-05-08T14:05:31.667Z,19.91
2023-05-08T14:07:58.752Z,20.19
2023-05-08T14:10:26.228Z,20.25
2023-05-08T14:12:53.349Z,20.26
2023-05-08T14:15:22.205Z,19.93
2023-05-08T14:17:50.817Z,19.62
2023-05-08T14:20:18.018Z,19.45
2023-05-08T14:25:13.459Z,19.24
2023-05-08T14:27:40.810Z,19.27
2023-05-08T14:30:08.622Z,19.34
2023-05-08T14:32:36.184Z,19.36
2023-05-08T14:35:03.398Z,19.29
2023-05-08T14:37:31.264Z,19.58
2023-05-08T14:39:59.447Z,19.67
2023-05-08T14:42:26.584Z,19.89
2023-05-08T14:44:53.812Z,19.67
2023-05-08T14:47:21.432Z,19.82
2023-05-08T14:49:48.539Z,19.96
2023-05-08T14:52:15.849Z,19.47
2023-05-08T14:54:43.496Z,19.14
2023-05-08T14:57:10.878Z,19.05
2023-05-08T14:59:41.675Z,18.98
2023-05-08T15:02:18.016Z,18.89
2023-05-08T15:04:46.118Z,18.81
2023-05-08T15:07:13.300Z,18.73
2023-05-08T15:09:41.002Z,18.81
2023-05-08T15:12:08.109Z,19.12
2023-05-08T15:14:35.308Z,19.03
2023-05-08T15:17:02.759Z,19.04
2023-05-08T15:19:29.865Z,19.10
2023-05-08T15:21:56.953Z,19.21
2023-05-08T15:24:24.434Z,19.11
2023-05-08T15:26:51.551Z,19.09
2023-05-08T15:29:18.697Z,19.27
2023-05-08T15:31:46.269Z,19.26
2023-05-08T15:34:13.405Z,19.51
2023-05-08T15:36:40.520Z,19.31
2023-05-08T15:39:08.003Z,19.55
2023-05-08T15:41:36.465Z,19.34
2023-05-08T15:44:03.565Z,19.49
2023-05-08T15:46:30.910Z,19.80
2023-05-08T15:48:59.275Z,19.70
2023-05-08T15:51:27.816Z,19.50
2023-05-08T15:53:56.260Z,19.39
2023-05-08T15:56:25.727Z,19.35
2023-05-08T15:58:53.217Z,19.33
2023-05-08T16:01:20.798Z,19.42
2023-05-08T16:03:48.364Z,19.61
2023-05-08T16:06:16.676Z,19.61
2023-05-08T16:08:44.074Z,19.69
2023-05-08T16:11:11.510Z,19.73
2023-05-08T16:13:38.698Z,19.63
2023-05-08T16:16:06.271Z,19.76
2023-05-08T16:18:36.710Z,19.81
2023-05-08T16:21:09.088Z,19.92
2023-05-08T16:23:36.445Z,20.11
2023-05-08T16:26:03.626Z,20.23
2023-05-08T16:28:30.895Z,20.37
2023-05-08T16:30:58.300Z,20.50
2023-05-08T16:33:25.485Z,20.67
2023-05-08T16:35:52.637Z,20.80
2023-05-08T16:38:20.416Z,20.78
2023-05-08T16:40:47.569Z,20.79
2023-05-08T16:43:14.685Z,20.88
2023-05-08T16:45:42.747Z,20.87
2023-05-08T16:48:09.943Z,20.83
2023-05-08T16:50:37.392Z,20.66
2023-05-08T16:53:05.054Z,20.69
2023-05-08T16:55:32.145Z,20.67
2023-05-08T16:57:59.251Z,20.69
2023-05-08T17:00:26.816Z,20.64
2023-05-08T17:02:54.083Z,20.56
2023-05-08T17:05:21.409Z,20.27
2023-05-08T17:07:48.862Z,20.21
2023-05-08T17:10:16.197Z,20.15
2023-05-08T17:12:43.353Z,19.94
2023-05-08T17:15:11.522Z,19.83
2023-05-08T17:17:38.721Z,19.50
2023-05-08T17:20:06.499Z,19.47
2023-05-08T17:22:33.903Z,19.41
2023-05-08T17:25:01.076Z,19.29
2023-05-08T17:27:28.234Z,19.07
2023-05-08T17:29:55.999Z,19.05
2023-05-08T17:32:23.185Z,18.76
2023-05-08T17:34:50.418Z,18.44
2023-05-08T17:37:17.861Z,18.20
2023-05-08T17:39:45.013Z,18.08
2023-05-08T17:42:12.131Z,17.89
2023-05-08T17:44:42.712Z,17.65
2023-05-08T17:47:09.898Z,17.51
2023-05-08T17:49:37.022Z,17.37
2023-05-08T17:52:04.735Z,17.24
2023-05-08T17:54:31.891Z,17.13
2023-05-08T17:56:59.013Z,17.07
2023-05-08T17:59:26.731Z,16.91
2023-05-08T18:01:54.631Z,16.78
2023-05-08T18:04:21.985Z,16.58
2023-05-08T18:06:49.510Z,16.49
2023-05-08T18:09:16.660Z,16.48
2023-05-08T18:11:44.114Z,16.37
2023-05-08T18:14:11.370Z,16.29
2023-05-08T18:16:38.548Z,16.19
2023-05-08T18:19:06.090Z,16.20
2023-05-08T18:21:33.257Z,16.14
2023-05-08T18:24:00.858Z,16.05
2023-05-08T18:26:28.507Z,16.04
2023-05-08T18:28:55.799Z,15.96
2023-05-08T18:31:22.931Z,15.90
2023-05-08T18:33:52.684Z,15.79
2023-05-08T18:36:19.768Z,15.72
2023-05-08T18:38:46.949Z,15.57
2023-05-08T18:41:14.541Z,15.53
2023-05-08T18:43:41.836Z,15.45
2023-05-08T18:46:12.590Z,15.35
2023-05-08T18:48:40.962Z,15.35
2023-05-08T18:51:08.094Z,15.35
2023-05-08T18:53:38.417Z,15.32
2023-05-08T18:56:06.338Z,15.25
2023-05-08T18:58:33.608Z,15.31
2023-05-08T19:01:01.321Z,15.31
2023-05-08T19:03:28.993Z,15.21
2023-05-08T19:05:56.258Z,15.09
2023-05-08T19:08:23.472Z,14.96
2023-05-08T19:10:50.956Z,15.03
2023-05-08T19:13:18.128Z,14.96
2023-05-08T19:15:45.308Z,14.76
2023-05-08T19:18:14.086Z,14.82
2023-05-08T19:20:41.200Z,14.77
2023-05-08T19:23:08.360Z,14.71
2023-05-08T19:25:35.879Z,14.61
2023-05-08T19:28:04.085Z,14.58
2023-05-08T19:30:31.216Z,14.54
2023-05-08T19:32:58.668Z,14.46
2023-05-08T19:35:25.840Z,14.62
2023-05-08T19:37:53.050Z,14.53
2023-05-08T19:40:20.480Z,14.48
2023-05-08T19:42:47.588Z,14.35
2023-05-08T19:45:16.218Z,14.30
2023-05-08T19:47:47.482Z,14.30
2023-05-08T19:50:18.019Z,14.01
2023-05-08T19:52:48.898Z,13.98
2023-05-08T19:55:19.127Z,14.02
2023-05-08T19:57:46.513Z,13.95
2023-05-08T20:00:14.031Z,14.08
2023-05-08T20:02:41.702Z,14.06
2023-05-08T20:07:39.173Z,14.13
2023-05-08T20:10:07.267Z,14.18
2023-05-08T20:12:34.360Z,14.20
2023-05-08T20:15:01.440Z,14.25
2023-05-08T20:17:28.965Z,14.15
2023-05-08T20:19:56.194Z,14.11
2023-05-08T20:22:23.342Z,14.09
2023-05-08T20:24:50.733Z,14.09
2023-05-08T20:27:17.900Z,14.04
2023-05-08T20:29:45.433Z,14.05
2023-05-08T20:32:19.014Z,14.03
2023-05-08T20:34:46.148Z,13.97
2023-05-08T20:37:15.869Z,13.79
2023-05-08T20:39:43.425Z,13.80
2023-05-08T20:42:10.639Z,13.76
2023-05-08T20:44:38.014Z,13.88
2023-05-08T20:47:05.200Z,13.84
2023-05-08T20:49:32.340Z,13.78
2023-05-08T20:51:59.748Z,13.82
2023-05-08T20:54:29.349Z,13.80
2023-05-08T20:56:56.462Z,13.90
2023-05-08T20:59:23.864Z,13.73
2023-05-08T21:01:51.124Z,13.74
2023-05-08T21:04:18.337Z,13.71
2023-05-08T21:06:45.767Z,13.69
2023-05-08T21:09:12.907Z,13.57
2023-05-08T21:11:40.017Z,13.40
2023-05-08T21:14:07.427Z,13.36
2023-05-08T21:16:34.598Z,13.39
2023-05-08T21:19:01.864Z,13.43
2023-05-08T21:21:29.216Z,13.40
2023-05-08T21:23:56.307Z,13.47
2023-05-08T21:26:23.812Z,13.48
2023-05-08T21:28:53.681Z,13.47
2023-05-08T21:31:20.851Z,13.37
2023-05-08T21:33:47.997Z,13.29
2023-05-08T21:36:15.448Z,13.29
2023-05-08T21:38:42.551Z,13.21
2023-05-08T21:41:09.697Z,13.17
2023-05-08T21:43:37.251Z,13.25
2023-05-08T21:46:05.543Z,13.39
2023-05-08T21:48:33.488Z,13.12
2023-05-08T21:51:01.198Z,13.20
2023-05-08T21:53:28.501Z,13.19
2023-05-08T21:55:55.634Z,13.16
2023-05-08T21:58:23.203Z,13.15
2023-05-08T22:00:50.313Z,13.14
2023-05-08T22:03:18.143Z,13.12
2023-05-08T22:05:45.460Z,12.85
2023-05-08T22:08:12.726Z,12.89
2023-05-08T22:10:40.197Z,12.88
2023-05-08T22:13:07.594Z,12.88
2023-05-08T22:15:34.956Z,12.81
2023-05-08T22:18:02.858Z,12.78
2023-05-08T22:20:30.439Z,12.71
2023-05-08T22:22:57.532Z,12.62
2023-05-08T22:25:25.702Z,12.55
2023-05-08T22:27:52.839Z,12.56
2023-05-08T22:30:20.018Z,12.59
2023-05-08T22:32:55.869Z,12.73
2023-05-08T22:35:24.492Z,12.78
2023-05-08T22:37:52.587Z,12.79
2023-05-08T22:40:22.000Z,12.66
2023-05-08T22:42:51.556Z,12.61
2023-05-08T22:45:19.448Z,12.45
2023-05-08T22:47:46.573Z,12.05
2023-05-08T22:50:13.891Z,11.74
2023-05-08T22:52:41.326Z,11.83
2023-05-08T22:55:08.859Z,11.90
2023-05-08T22:57:36.005Z,11.94
2023-05-08T23:00:04.103Z,11.71
2023-05-08T23:02:33.348Z,11.47
2023-05-08T23:05:00.949Z,11.67
2023-05-08T23:07:28.988Z,11.75
2023-05-08T23:09:56.141Z,11.77
2023-05-08T23:12:23.236Z,11.74
2023-05-08T23:14:50.651Z,11.58
2023-05-08T23:17:17.732Z,11.54
2023-05-08T23:19:45.636Z,11.36
2023-05-08T23:22:13.147Z,11.11
2023-05-08T23:24:40.316Z,11.30
2023-05-08T23:27:07.475Z,11.39
2023-05-08T23:29:34.911Z,11.22
2023-05-08T23:32:02.054Z,11.16
2023-05-08T23:34:29.164Z,11.20
2023-05-08T23:36:56.961Z,11.31
2023-05-08T23:39:24.145Z,11.48
2023-05-08T23:41:51.258Z,11.57
2023-05-08T23:44:18.883Z,11.55
2023-05-08T23:46:46.349Z,11.50
2023-05-08T23:49:13.538Z,11.57
2023-05-08T23:51:41.068Z,11.49
2023-05-08T23:54:08.190Z,11.46
2023-05-08T23:56:35.424Z,11.46
2023-05-08T23:59:02.856Z,11.39
